createdAt,value
2023-05-21T00:00:53.603Z,29.70
2023-05-21T00:03:23.287Z,28.67
2023-05-21T00:05:50.060Z,30.08
2023-05-21T00:08:16.793Z,30.50
2023-05-21T00:10:43.549Z,28.55
2023-05-21T00:13:10.249Z,29.92
2023-05-21T00:15:37.198Z,30.85
2023-05-21T00:18:04.130Z,29.17
2023-05-21T00:20:31.296Z,28.92
2023-05-21T00:22:58.825Z,28.02
2023-05-21T00:25:26.118Z,27.23
2023-05-21T00:27:52.959Z,28.25
2023-05-21T00:30:19.546Z,28.85
2023-05-21T00:32:46.197Z,26.17
2023-05-21T00:35:12.793Z,27.35
2023-05-21T00:37:39.480Z,28.65
2023-05-21T00:40:06.632Z,31.17
2023-05-21T00:42:33.205Z,32.13
2023-05-21T00:44:59.964Z,28.70
2023-05-21T00:47:26.618Z,28.77
2023-05-21T00:49:56.831Z,30.55
2023-05-21T00:52:23.522Z,31.98
2023-05-21T00:54:51.141Z,32.63
2023-05-21T00:57:19.101Z,31.05
2023-05-21T00:59:45.765Z,32.60
2023-05-21T01:02:12.345Z,33.38
2023-05-21T01:04:38.948Z,33.00
2023-05-21T01:07:05.624Z,34.03
2023-05-21T01:09:32.362Z,35.08
2023-05-21T01:11:59.334Z,33.78
2023-05-21T01:14:25.949Z,36.63
2023-05-21T01:16:55.133Z,33.40
2023-05-21T01:19:22.556Z,34.20
2023-05-21T01:21:58.883Z,33.42
2023-05-21T01:24:25.479Z,31.88
2023-05-21T01:26:52.039Z,35.72
2023-05-21T01:29:18.642Z,36.28
2023-05-21T01:32:11.421Z,33.63
2023-05-21T01:34:41.160Z,30.25
2023-05-21T01:37:28.164Z,32.20
2023-05-21T01:40:02.717Z,31.15
2023-05-21T01:42:30.096Z,30.45
2023-05-21T01:44:57.396Z,30.17
2023-05-21T01:47:27.260Z,29.40
2023-05-21T01:49:56.113Z,28.60
2023-05-21T01:52:22.702Z,27.02
2023-05-21T01:54:49.382Z,29.55
2023-05-21T01:57:16.493Z,28.77
2023-05-21T01:59:46.479Z,27.35
2023-05-21T02:02:13.082Z,25.90
2023-05-21T02:04:39.707Z,23.33
2023-05-21T02:07:06.343Z,22.58
2023-05-21T02:09:32.961Z,21.52
2023-05-21T02:11:59.511Z,21.38
2023-05-21T02:14:26.307Z,21.88
2023-05-21T02:16:52.865Z,17.83
2023-05-21T02:19:19.553Z,20.45
2023-05-21T02:21:46.199Z,19.88
2023-05-21T02:24:12.828Z,21.85
2023-05-21T02:26:39.430Z,18.77
2023-05-21T02:29:06.136Z,18.88
2023-05-21T02:31:32.751Z,16.85
2023-05-21T02:33:59.660Z,18.63
2023-05-21T02:36:27.953Z,18.70
2023-05-21T02:38:54.891Z,16.60
2023-05-21T02:41:21.591Z,15.52
2023-05-21T02:43:48.182Z,17.35
2023-05-21T02:46:14.844Z,17.30
2023-05-21T02:48:41.466Z,17.05
2023-05-21T02:51:08.067Z,17.98
2023-05-21T02:53:34.658Z,17.45
2023-05-21T02:56:01.294Z,18.92
2023-05-21T02:58:33.948Z,18.00
2023-05-21T03:01:00.590Z,18.20
2023-05-21T03:03:30.761Z,18.00
2023-05-21T03:05:57.406Z,16.50
2023-05-21T03:08:23.949Z,17.85
2023-05-21T03:10:50.539Z,15.23
2023-05-21T03:13:20.765Z,15.25
2023-05-21T03:15:50.147Z,18.10
2023-05-21T03:18:16.695Z,15.07
2023-05-21T03:20:45.248Z,15.65
2023-05-21T03:23:13.059Z,16.00
2023-05-21T03:25:48.382Z,15.23
2023-05-21T03:28:15.972Z,15.20
2023-05-21T03:30:44.770Z,15.57
2023-05-21T03:33:11.419Z,14.70
2023-05-21T03:35:45.758Z,14.90
2023-05-21T03:38:13.288Z,15.40
2023-05-21T03:40:40.080Z,15.68
2023-05-21T03:43:09.814Z,15.25
2023-05-21T03:45:37.712Z,14.98
2023-05-21T03:48:06.095Z,15.15
2023-05-21T03:50:34.973Z,15.57
2023-05-21T03:53:04.443Z,15.32
2023-05-21T03:55:32.019Z,15.77
2023-05-21T03:58:05.677Z,14.88
2023-05-21T04:00:38.555Z,15.95
2023-05-21T04:03:06.585Z,14.57
2023-05-21T04:05:33.515Z,15.07
2023-05-21T04:08:00.278Z,13.55
2023-05-21T04:10:26.929Z,12.70
2023-05-21T04:12:53.544Z,12.85
2023-05-21T04:15:20.177Z,12.02
2023-05-21T04:17:46.860Z,12.80
2023-05-21T04:20:14.167Z,12.50
2023-05-21T04:22:43.395Z,11.77
2023-05-21T04:25:10.702Z,10.75
2023-05-21T04:27:37.602Z,11.68
2023-05-21T04:30:04.618Z,11.65
2023-05-21T04:32:39.404Z,12.27
2023-05-21T04:35:06.988Z,12.82
2023-05-21T04:37:35.390Z,13.15
2023-05-21T04:40:04.852Z,11.93
2023-05-21T04:42:37.124Z,11.98
2023-05-21T04:45:03.889Z,13.35
2023-05-21T04:47:30.592Z,13.15
2023-05-21T04:49:57.728Z,12.20
2023-05-21T04:52:24.339Z,12.15
2023-05-21T04:54:51.458Z,12.10
2023-05-21T04:57:18.025Z,13.73
2023-05-21T04:59:44.738Z,15.77
2023-05-21T05:02:14.365Z,14.65
2023-05-21T05:04:41.715Z,14.65
2023-05-21T05:07:08.296Z,14.30
2023-05-21T05:09:34.956Z,13.93
2023-05-21T05:12:01.634Z,13.70
2023-05-21T05:14:28.184Z,13.80
2023-05-21T05:16:54.887Z,12.68
2023-05-21T05:19:21.527Z,15.45
2023-05-21T05:21:51.568Z,15.60
2023-05-21T05:24:18.313Z,15.98
2023-05-21T05:26:44.930Z,17.42
2023-05-21T05:29:11.599Z,17.30
2023-05-21T05:31:38.232Z,16.08
2023-05-21T05:34:07.161Z,19.15
2023-05-21T05:36:35.704Z,19.42
2023-05-21T05:39:02.242Z,20.52
2023-05-21T05:41:33.270Z,21.38
2023-05-21T05:44:12.302Z,22.30
2023-05-21T05:46:50.512Z,19.58
2023-05-21T05:49:18.585Z,20.90
2023-05-21T05:51:45.230Z,21.38
2023-05-21T05:54:16.084Z,20.92
2023-05-21T05:56:43.705Z,21.13
2023-05-21T05:59:10.334Z,23.08
2023-05-21T06:01:36.920Z,20.02
2023-05-21T06:04:05.898Z,21.52
2023-05-21T06:06:32.472Z,22.05
2023-05-21T06:09:00.686Z,22.20
2023-05-21T06:11:28.083Z,24.13
2023-05-21T06:14:09.419Z,23.25
2023-05-21T06:16:49.180Z,22.42
2023-05-21T06:19:30.045Z,24.83
2023-05-21T06:22:12.523Z,22.90
2023-05-21T06:24:54.040Z,23.83
2023-05-21T06:27:21.845Z,23.67
2023-05-21T06:29:51.085Z,21.88
2023-05-21T06:32:18.675Z,21.58
2023-05-21T06:34:45.236Z,23.08
2023-05-21T06:37:11.851Z,26.38
2023-05-21T06:39:41.770Z,25.55
2023-05-21T06:42:09.325Z,27.77
2023-05-21T06:44:35.955Z,27.10
2023-05-21T06:47:04.194Z,27.35
2023-05-21T06:49:34.705Z,25.98
2023-05-21T06:52:13.301Z,26.55
2023-05-21T06:54:50.615Z,27.00
2023-05-21T06:57:26.838Z,26.33
2023-05-21T06:59:57.965Z,25.92
2023-05-21T07:02:33.084Z,25.90
2023-05-21T07:05:02.637Z,25.05
2023-05-21T07:07:29.220Z,24.13
2023-05-21T07:09:55.814Z,22.98
2023-05-21T07:12:22.654Z,22.90
2023-05-21T07:14:52.517Z,22.45
2023-05-21T07:17:26.814Z,25.05
2023-05-21T07:19:54.640Z,24.65
2023-05-21T07:22:21.223Z,22.10
2023-05-21T07:24:54.689Z,21.85
2023-05-21T07:27:30.275Z,21.90
2023-05-21T07:30:03.563Z,22.33
2023-05-21T07:32:38.525Z,21.92
2023-05-21T11:59:42.218Z,13.82
2023-05-21T13:20:34.028Z,11.70
2023-05-21T18:23:15.854Z,6.88
2023-05-21T18:30:52.138Z,6.80
2023-05-21T18:58:03.353Z,8.00
2023-05-21T19:00:29.976Z,8.25
2023-05-21T19:02:56.771Z,8.13
2023-05-21T19:05:24.492Z,7.75
2023-05-21T19:07:59.643Z,8.43
2023-05-21T19:10:26.841Z,7.75
2023-05-21T19:12:53.612Z,8.30
2023-05-21T19:15:20.364Z,8.77
2023-05-21T19:17:50.264Z,9.40
2023-05-21T19:20:26.597Z,8.38
2023-05-21T19:22:54.592Z,9.45
2023-05-21T19:25:21.536Z,9.07
2023-05-21T19:27:48.672Z,8.60
2023-05-21T19:30:15.259Z,9.52
2023-05-21T19:32:45.525Z,9.23
2023-05-21T19:35:13.125Z,9.07
2023-05-21T19:37:39.820Z,9.63
2023-05-21T19:40:06.912Z,8.80
2023-05-21T19:42:33.507Z,10.00
2023-05-21T19:45:00.297Z,9.90
2023-05-21T19:47:27.039Z,9.15
2023-05-21T19:50:06.899Z,10.75
2023-05-21T19:52:49.661Z,8.55
2023-05-21T19:55:29.253Z,9.90
2023-05-21T19:58:14.601Z,11.07
2023-05-21T20:00:43.637Z,10.65
2023-05-21T20:03:24.756Z,10.55
2023-05-21T20:05:53.242Z,10.45
2023-05-21T20:08:31.996Z,9.98
2023-05-21T20:11:00.783Z,10.38
2023-05-21T20:13:30.303Z,10.98
2023-05-21T20:15:56.959Z,10.80
2023-05-21T20:18:23.652Z,10.38
2023-05-21T20:20:50.334Z,10.60
2023-05-21T20:23:17.333Z,10.35
2023-05-21T20:25:45.188Z,10.80
2023-05-21T20:28:23.212Z,11.65
2023-05-21T20:31:00.660Z,11.05
2023-05-21T20:33:33.764Z,12.13
2023-05-21T20:36:02.882Z,12.27
2023-05-21T20:38:35.993Z,11.77
2023-05-21T20:41:02.779Z,10.80
2023-05-21T20:43:30.984Z,12.10
2023-05-21T20:45:58.230Z,11.05
2023-05-21T20:48:30.149Z,10.75
2023-05-21T20:51:02.196Z,11.35
2023-05-21T20:53:34.942Z,11.38
2023-05-21T20:56:07.890Z,12.70
2023-05-21T20:58:42.593Z,12.27
2023-05-21T21:01:24.520Z,11.40
2023-05-21T21:03:51.395Z,11.33
2023-05-21T21:06:18.388Z,11.18
2023-05-21T21:08:44.959Z,11.02
2023-05-21T21:11:11.756Z,11.68
2023-05-21T21:13:46.380Z,11.77
2023-05-21T21:16:14.825Z,10.85
2023-05-21T21:18:44.576Z,11.52
2023-05-21T21:21:16.494Z,11.85
2023-05-21T21:23:43.091Z,10.80
2023-05-21T21:26:09.715Z,11.45
2023-05-21T21:28:44.901Z,11.30
2023-05-21T21:31:24.328Z,11.77
2023-05-21T21:33:51.090Z,10.75
2023-05-21T21:36:17.699Z,10.40
2023-05-21T21:38:44.291Z,11.27
2023-05-21T21:41:13.225Z,10.88
2023-05-21T21:43:42.586Z,11.00
2023-05-21T21:46:12.953Z,10.98
2023-05-21T21:48:39.588Z,10.75
2023-05-21T21:51:06.323Z,11.13
2023-05-21T21:53:34.486Z,11.23
2023-05-21T21:56:01.420Z,11.43
2023-05-21T21:58:28.008Z,12.05
2023-05-21T22:00:54.619Z,11.45
2023-05-21T22:03:24.127Z,12.38
2023-05-21T22:05:50.725Z,10.93
2023-05-21T22:08:17.436Z,11.85
2023-05-21T22:10:44.066Z,10.80
2023-05-21T22:13:11.503Z,10.77
2023-05-21T22:15:38.197Z,11.30
2023-05-21T22:18:11.882Z,11.70
2023-05-21T22:20:39.025Z,11.68
2023-05-21T22:23:10.933Z,11.40
2023-05-21T22:25:37.526Z,11.52
2023-05-21T22:28:06.547Z,12.07
2023-05-21T22:30:33.131Z,13.68
2023-05-21T22:32:59.777Z,10.95
2023-05-21T22:35:26.441Z,10.95
2023-05-21T22:37:53.002Z,10.93
2023-05-21T22:40:19.597Z,10.25
2023-05-21T22:42:48.999Z,10.40
2023-05-21T22:45:15.920Z,9.77
2023-05-21T22:47:42.754Z,9.60
2023-05-21T22:50:09.618Z,10.07
2023-05-21T22:52:36.418Z,9.77
2023-05-21T22:55:03.216Z,9.80
2023-05-21T22:57:29.815Z,10.50
2023-05-21T22:59:56.453Z,10.05
2023-05-21T23:02:26.429Z,10.88
2023-05-21T23:05:00.846Z,10.75
2023-05-21T23:07:27.824Z,9.93
2023-05-21T23:09:54.457Z,9.02
2023-05-21T23:12:21.078Z,9.80
2023-05-21T23:14:47.629Z,9.10
2023-05-21T23:17:22.092Z,9.73
2023-05-21T23:19:52.739Z,9.57
2023-05-21T23:22:20.413Z,9.57
2023-05-21T23:24:48.635Z,10.07
2023-05-21T23:27:15.685Z,9.70
2023-05-21T23:29:47.531Z,9.27
2023-05-21T23:34:47.607Z,9.02
2023-05-21T23:37:15.061Z,9.52
2023-05-21T23:39:44.363Z,9.55
2023-05-21T23:42:11.132Z,9.88
2023-05-21T23:44:37.716Z,8.75
2023-05-21T23:47:04.447Z,8.93
2023-05-21T23:49:34.116Z,9.70
2023-05-21T23:52:03.995Z,8.88
2023-05-21T23:54:30.965Z,9.45
2023-05-21T23:56:57.580Z,8.95
2023-05-21T23:59:24.198Z,9.18
